Flight Track Log - Related Links

Times and Time Zones

All times are in EDT time to prevent confusion due to time zone crossing. See the THY5 flight status page for this flight to view local times or setup timezone preferences in your user account.

Time Position Orientation Groundspeed Altitude Reporting Facility
EDT Latitude Longitude Course Direction KTS MPH feet Rate Location/Type
Thu 06:38:12 AM 40.9810 28.8140 359° North 7 8  Level FlightAware ADS-B
Thu 06:42:03 AM 40.9830 28.8120 323° Northwest 21 24 140 Level FlightAware ADS-B
Thu 06:42:32 AM 40.9800 28.8120 180° South 16 18 180 Level FlightAware ADS-B
Thu 06:45:00 AM 41.1827 28.5343 312° West  Level FlightAware Approximate
Thu 06:46:00 AM 41.2649 28.4190 315° West  Level FlightAware Approximate
Thu 06:47:00 AM 41.3509 28.3084 316° Northwest  Level FlightAware Approximate
Thu 06:48:00 AM 41.4373 28.1982 316° Northwest  Level FlightAware Approximate
Thu 06:49:00 AM 41.5238 28.0880 316° Northwest  Level FlightAware Approximate
Thu 06:50:00 AM 41.6108 27.9783 317° Northwest  Level FlightAware Approximate
Thu 06:51:00 AM 41.6981 27.8690 317° Northwest  Level FlightAware Approximate
Thu 06:52:00 AM 41.7865 27.7611 318° Northwest  Level FlightAware Approximate
Thu 06:53:00 AM 41.8733 27.6508 314° West  Level FlightAware Approximate
Thu 06:54:00 AM 41.9561 27.5350 314° West  Level FlightAware Approximate
Thu 06:55:00 AM 42.0393 27.4193 315° West  Level FlightAware Approximate
Thu 06:55:23 AM 41.0350 28.8070 357° North 149 171 2,400  Level FlightAware ADS-B
Thu 06:55:51 AM 41.0520 28.8070 360° North 149 171 2,400 800 Level FlightAware ADS-B
Thu 06:56:38 AM 41.0910 28.7820 334° Northwest 203 234 3,400 1,000 Climbing FlightAware ADS-B
Thu 06:57:03 AM 41.1060 28.7590 311° West 222 255 3,600 960 Climbing FlightAware ADS-B
Thu 06:57:53 AM 41.1450 28.6960 309° West 271 312 4,600 1,650 Climbing FlightAware ADS-B
Thu 06:58:23 AM 41.1690 28.6600 312° West 272 313 5,800 2,143 Climbing FlightAware ADS-B
Thu 06:59:03 AM 41.2040 28.6070 311° West 281 323 7,100 2,000 Climbing FlightAware ADS-B
Thu 06:59:38 AM 41.2320 28.5650 312° West 289 333 8,300 2,200 Climbing FlightAware ADS-B
Thu 07:00:03 AM 41.2540 28.5320 312° West 292 336 9,300 1,786 Climbing FlightAware ADS-B
Thu 07:01:02 AM 41.3100 28.4420 310° West 326 375 10,800 1,320 Climbing FlightAware ADS-B
Thu 07:01:43 AM 41.3530 28.3750 311° West 355 409 11,500 1,407 Climbing FlightAware ADS-B
Thu 07:02:23 AM 41.3910 28.3130 309° West 362 417 12,700 1,888 Climbing FlightAware ADS-B
Thu 07:03:12 AM 41.4500 28.2190 310° West 379 436 14,300 1,814 Climbing FlightAware ADS-B
Thu 07:03:49 AM 41.4870 28.1600 310° West 381 438 15,300 1,816 Climbing FlightAware ADS-B
Thu 07:04:28 AM 41.5330 28.0870 310° West 385 443 16,600 1,857 Climbing FlightAware ADS-B
Thu 07:05:13 AM 41.5900 27.9940 309° West 394 453 17,900 1,648 Climbing FlightAware ADS-B
Thu 07:05:59 AM 41.6410 27.9110 309° West 406 467 19,100 1,565 Climbing FlightAware ADS-B
Thu 07:07:08 AM 41.7230 27.7780 310° West 412 474 20,900 1,486 Climbing FlightAware ADS-B
Thu 07:07:48 AM 41.7750 27.6940 310° West 415 478 21,800 1,360 Climbing FlightAware ADS-B
Thu 07:08:23 AM 41.8140 27.6310 310° West 419 482 22,600 1,345 Climbing FlightAware ADS-B
Thu 07:09:44 AM 41.9200 27.4560 309° West 431 496 24,400 1,244 Climbing FlightAware ADS-B
Thu 07:10:38 AM 41.9840 27.3520 310° West 437 503 25,400 978 Climbing FlightAware ADS-B
Thu 07:11:16 AM 42.0240 27.2860 309° West 437 503 25,900 1,081 Climbing FlightAware ADS-B
Thu 07:12:29 AM 42.1340 27.1210 312° West 444 511 27,400 1,096 Climbing FlightAware ADS-B
Thu 07:13:11 AM 42.1940 27.0380 314° West 449 517 28,000 929 Climbing FlightAware ADS-B
Thu 07:13:53 AM 42.2520 26.9560 314° West 449 517 28,700 990 Climbing FlightAware ADS-B
Thu 07:14:48 AM 42.3360 26.8390 314° West 445 512 29,600 933 Climbing FlightAware ADS-B
Thu 07:15:23 AM 42.3880 26.7660 314° West 447 514 30,100 868 Climbing FlightAware ADS-B
Thu 07:16:04 AM 42.4390 26.6930 313° West 449 517 30,700 963 Climbing FlightAware ADS-B
Thu 07:16:44 AM 42.5050 26.5990 314° West 448 516 31,400 941 Climbing FlightAware ADS-B
Thu 07:17:46 AM 42.5940 26.4740 314° West 444 511 32,300 918 Climbing FlightAware ADS-B
Thu 07:18:22 AM 42.6440 26.4010 313° West 437 503 32,900 1,000 Climbing FlightAware ADS-B
Thu 07:19:10 AM 42.7100 26.3070 314° West 432 497 33,700 767 Climbing FlightAware ADS-B
Thu 07:19:48 AM 42.7640 26.2300 314° West 425 489 34,000 85 Climbing FlightAware ADS-B
Thu 07:22:00 AM 42.9557 25.9748 314° West  Level Estimated
Thu 07:22:41 AM 42.9540 25.9530 314° West 435 501 34,000  Level FlightAware ADS-B
Thu 07:24:22 AM 43.1230 25.7090 314° West 435 501 34,000  Level FlightAware ADS-B
Thu 07:25:04 AM 43.1930 25.6050 313° West 435 501 34,000  Level FlightAware ADS-B
Thu 07:25:39 AM 43.2460 25.5280 313° West 435 501 34,000  Level FlightAware ADS-B
Thu 07:26:34 AM 43.3220 25.4150 313° West 435 501 34,000  Level FlightAware ADS-B
Thu 07:27:14 AM 43.3720 25.3410 313° West 435 501 34,000  Level FlightAware ADS-B
Thu 07:27:49 AM 43.4220 25.2670 313° West 435 501 34,000  Level FlightAware ADS-B
Thu 07:28:34 AM 43.4840 25.1750 313° West 436 502 34,000  Level FlightAware ADS-B
Thu 07:29:14 AM 43.5380 25.0930 312° West 435 501 34,000  Level FlightAware ADS-B
Thu 07:29:59 AM 43.6010 24.9990 313° West 435 501 34,000  Level FlightAware ADS-B
Thu 07:30:39 AM 43.6490 24.9260 312° West 436 502 34,000  Level FlightAware ADS-B
Thu 07:31:24 AM 43.7130 24.8250 311° West 436 502 34,000  Level FlightAware ADS-B
Thu 07:32:04 AM 43.7660 24.7420 311° West 437 503 34,000  Level FlightAware ADS-B
Thu 07:32:39 AM 43.8150 24.6660 312° West 438 504 34,000  Level FlightAware ADS-B
Thu 07:33:19 AM 43.8670 24.5840 311° West 437 503 34,000  Level FlightAware ADS-B
Thu 07:34:01 AM 43.9220 24.4970 311° West 436 502 34,000  Level FlightAware ADS-B
Thu 07:34:39 AM 43.9730 24.4170 312° West 436 502 34,000  Level FlightAware ADS-B
Thu 07:35:24 AM 44.0330 24.3210 311° West 436 502 34,000  Level FlightAware ADS-B
Thu 07:36:09 AM 44.0930 24.2260 311° West 437 503 34,000  Level FlightAware ADS-B
Thu 07:36:49 AM 44.1460 24.1400 311° West 437 503 34,000  Level FlightAware ADS-B
Thu 07:37:34 AM 44.2070 24.0420 311° West 438 504 34,000  Level FlightAware ADS-B
Thu 07:38:15 AM 44.2590 23.9590 311° West 439 505 34,000  Level FlightAware ADS-B
Thu 07:38:54 AM 44.3120 23.8730 311° West 439 505 34,000  Level FlightAware ADS-B
Thu 07:39:39 AM 44.3670 23.7840 311° West 439 505 34,000  Level FlightAware ADS-B
Thu 07:41:01 AM 44.4650 23.6220 310° West 438 504 34,000  Level FlightAware ADS-B
Thu 07:43:28 AM 44.6420 23.3340 311° West 439 505 34,000  Level FlightAware ADS-B
Thu 07:44:10 AM 44.7230 23.2010 311° West 440 506 34,000  Level FlightAware ADS-B
Thu 07:44:52 AM 44.7800 23.1060 310° West 439 505 34,000  Level FlightAware ADS-B
Thu 07:45:36 AM 44.8320 23.0200 310° West 439 505 34,000  Level FlightAware ADS-B
Thu 07:46:16 AM 44.8910 22.9210 310° West 440 506 34,000  Level FlightAware ADS-B
Thu 07:46:52 AM 44.9340 22.8490 310° West 440 506 34,000  Level FlightAware ADS-B
Thu 07:47:33 AM 44.9910 22.7540 310° West 442 509 34,000  Level FlightAware ADS-B
Thu 07:48:13 AM 45.0420 22.6670 310° West 442 509 34,000  Level FlightAware ADS-B
Thu 07:49:13 AM 45.1210 22.5340 310° West 440 506 34,000  Level FlightAware ADS-B
Thu 07:49:55 AM 45.1760 22.4400 310° West 439 505 34,000  Level FlightAware ADS-B
Thu 07:50:31 AM 45.2220 22.3610 310° West 438 504 34,000  Level FlightAware ADS-B
Thu 07:51:12 AM 45.2740 22.2730 310° West 439 505 34,000  Level FlightAware ADS-B
Thu 07:51:53 AM 45.3270 22.1830 310° West 440 506 34,000  Level FlightAware ADS-B
Thu 07:52:47 AM 45.3940 22.0680 310° West 439 505 34,000  Level FlightAware ADS-B
Thu 07:53:23 AM 45.4460 21.9770 309° West 439 505 34,000  Level FlightAware ADS-B
Thu 07:54:10 AM 45.5050 21.8750 310° West 439 505 34,000  Level FlightAware ADS-B
Thu 07:54:57 AM 45.5650 21.7710 310° West 439 505 34,000  Level FlightAware ADS-B
Thu 07:55:35 AM 45.6170 21.6800 309° West 439 505 34,000  Level FlightAware ADS-B
Thu 07:56:20 AM 45.6770 21.5760 310° West 440 506 34,000  Level FlightAware ADS-B
Thu 07:57:00 AM 45.7260 21.4900 309° West 441 507 34,000  Level FlightAware ADS-B
Thu 07:57:40 AM 45.7800 21.3940 309° West 441 507 34,000  Level FlightAware ADS-B
Thu 07:58:25 AM 45.8330 21.3010 309° West 442 509 34,000  Level FlightAware ADS-B
Thu 07:59:03 AM 45.8850 21.2070 308° West 443 510 34,000  Level FlightAware ADS-B
Thu 08:01:00 AM 46.0447 20.9542 312° West  Level Estimated
Thu 08:02:00 AM 46.1264 20.8240 312° West  Level Estimated
Thu 08:02:28 AM 46.1280 20.7730 312° West 442 509 34,000  Level FlightAware ADS-B
Thu 08:03:09 AM 46.1730 20.6900 308° West 443 510 34,000  Level FlightAware ADS-B
Thu 08:03:54 AM 46.2500 20.5320 305° West 443 510 34,000  Level FlightAware ADS-B
Thu 08:04:54 AM 46.3220 20.3870 306° West 444 511 34,000  Level FlightAware ADS-B
Thu 08:05:35 AM 46.3700 20.2870 305° West 446 513 34,000  Level FlightAware ADS-B
Thu 08:06:14 AM 46.4160 20.1920 305° West 445 512 34,000  Level FlightAware ADS-B
Thu 08:07:14 AM 46.4870 20.0460 305° West 447 514 34,000  Level FlightAware ADS-B
Thu 08:07:55 AM 46.5350 19.9470 305° West 447 514 34,000  Level FlightAware ADS-B
Thu 08:08:34 AM 46.5820 19.8490 305° West 447 514 34,000  Level FlightAware ADS-B
Thu 08:09:25 AM 46.6420 19.7230 305° West 447 514 34,000  Level FlightAware ADS-B
Thu 08:10:10 AM 46.6940 19.6140 305° West 441 507 34,000  Level FlightAware ADS-B
Thu 08:10:49 AM 46.7410 19.5160 305° West 442 509 34,000  Level FlightAware ADS-B
Thu 08:11:38 AM 46.7790 19.4360 305° West 442 509 34,000  Level FlightAware ADS-B
Thu 08:12:15 AM 46.8360 19.3140 304° West 442 509 34,000  Level FlightAware ADS-B
Thu 08:13:05 AM 46.8990 19.1800 305° West 444 511 34,000  Level FlightAware ADS-B
Thu 08:13:45 AM 46.9460 19.0800 305° West 446 513 34,000  Level FlightAware ADS-B
Thu 08:14:30 AM 46.9990 18.9660 304° West 446 513 34,000  Level FlightAware ADS-B
Thu 08:15:09 AM 47.0460 18.8650 304° West 447 514 34,000  Level FlightAware ADS-B
Thu 08:15:54 AM 47.0980 18.7530 304° West 450 518 34,000  Level FlightAware ADS-B
Thu 08:16:34 AM 47.1440 18.6530 304° West 450 518 34,000  Level FlightAware ADS-B
Thu 08:17:10 AM 47.1850 18.5620 304° West 450 518 34,000  Level FlightAware ADS-B
Thu 08:17:54 AM 47.2370 18.4500 304° West 451 519 34,000  Level FlightAware ADS-B
Thu 08:18:36 AM 47.2860 18.3410 304° West 452 520 34,000  Level FlightAware ADS-B
Thu 08:19:22 AM 47.3400 18.2210 304° West 452 520 34,000  Level FlightAware ADS-B
Thu 08:20:47 AM 47.4230 18.0380 304° West 452 520 34,000  Level FlightAware ADS-B
Thu 08:21:44 AM 47.5030 17.8590 304° West 454 522 34,000  Level FlightAware ADS-B
Thu 08:22:24 AM 47.5500 17.7540 304° West 454 522 34,000  Level FlightAware ADS-B
Thu 08:23:09 AM 47.6010 17.6390 303° West 455 524 34,000  Level FlightAware ADS-B
Thu 08:24:29 AM 47.6760 17.4680 303° West 451 519 34,000  Level FlightAware ADS-B
Thu 08:25:26 AM 47.7460 17.3090 303° West 455 524 34,000  Level FlightAware ADS-B
Thu 08:26:07 AM 47.8060 17.1720 303° West 455 524 34,000  Level FlightAware ADS-B
Thu 08:26:51 AM 47.8480 17.0500 297° West 453 521 34,000  Level FlightAware ADS-B
Thu 08:27:24 AM 47.8760 16.9570 294° West 453 521 34,000  Level FlightAware ADS-B
Thu 08:28:08 AM 47.9140 16.8300 294° West 454 522 34,000  Level FlightAware ADS-B
Thu 08:28:43 AM 47.9440 16.7300 294° West 455 524 34,000  Level FlightAware ADS-B
Thu 08:29:23 AM 47.9780 16.6170 294° West 456 525 34,000  Level FlightAware ADS-B
Thu 08:30:05 AM 48.0130 16.4980 294° West 456 525 34,000  Level FlightAware ADS-B
Thu 08:30:56 AM 48.0570 16.3480 294° West 457 526 34,000  Level FlightAware ADS-B
Thu 08:31:30 AM 48.0840 16.2550 294° West 456 525 34,000  Level FlightAware ADS-B
Thu 08:32:15 AM 48.1220 16.1250 294° West 455 524 34,000  Level FlightAware ADS-B
Thu 08:32:53 AM 48.1540 16.0120 293° West 455 524 34,000  Level FlightAware ADS-B
Thu 08:33:30 AM 48.1850 15.9050 294° West 455 524 34,000  Level FlightAware ADS-B
Thu 08:34:16 AM 48.2230 15.7740 294° West 455 524 34,000  Level FlightAware ADS-B
Thu 08:34:58 AM 48.2580 15.6490 293° West 456 525 34,000  Level FlightAware ADS-B
Thu 08:35:41 AM 48.2940 15.5250 294° West 455 524 34,000  Level FlightAware ADS-B
Thu 08:36:22 AM 48.3270 15.4070 293° West 454 522 34,000  Level FlightAware ADS-B
Thu 08:37:06 AM 48.3630 15.2770 293° West 454 522 34,000  Level FlightAware ADS-B
Thu 08:37:42 AM 48.3920 15.1740 293° West 455 524 34,000  Level FlightAware ADS-B
Thu 08:38:22 AM 48.4250 15.0570 293° West 456 525 34,000  Level FlightAware ADS-B
Thu 08:39:04 AM 48.4580 14.9360 292° West 456 525 34,000  Level FlightAware ADS-B
Thu 08:39:41 AM 48.4860 14.8330 292° West 458 527 34,000  Level FlightAware ADS-B
Thu 08:41:00 AM 48.5410 14.6330 293° West 460 529 34,000  Level FlightAware ADS-B
Thu 08:42:04 AM 48.6030 14.4020 292° West 462 532 34,000  Level FlightAware ADS-B
Thu 08:42:44 AM 48.6350 14.2860 293° West 462 532 34,000  Level FlightAware ADS-B
Thu 08:45:00 AM 48.8030 13.9541 308° West  Level Estimated
Thu 08:45:00 AM 48.7340 13.9120 308° West 462 532 34,000  Level FlightAware ADS-B
Thu 08:45:44 AM 48.7780 13.7460 292° West 464 534 34,000  Level FlightAware ADS-B
Thu 08:46:24 AM 48.8170 13.6310 297° West 466 536 34,000  Level FlightAware ADS-B
Thu 08:47:02 AM 48.8650 13.5280 305° West 466 536 34,000  Level FlightAware ADS-B
Thu 08:47:48 AM 48.9290 13.4100 310° West 467 537 34,000  Level FlightAware ADS-B
Thu 08:48:32 AM 48.9860 13.3020 309° West 467 537 34,000  Level FlightAware ADS-B
Thu 08:49:13 AM 49.0420 13.1950 309° West 467 537 34,000  Level FlightAware ADS-B
Thu 08:49:57 AM 49.0990 13.0830 308° West 465 535 34,000  Level FlightAware ADS-B
Thu 08:50:33 AM 49.1490 12.9860 308° West 464 534 34,000  Level FlightAware ADS-B
Thu 08:51:16 AM 49.2030 12.8800 308° West 465 535 34,000  Level FlightAware ADS-B
Thu 08:52:00 AM 49.2620 12.7660 308° West 466 536 34,000  Level FlightAware ADS-B
Thu 08:52:45 AM 49.3240 12.6450 308° West 460 529 34,000  Level FlightAware ADS-B
Thu 08:53:25 AM 49.3750 12.5440 308° West 460 529 34,000  Level FlightAware ADS-B
Thu 08:54:05 AM 49.4290 12.4370 308° West 461 531 34,000  Level FlightAware ADS-B
Thu 08:54:46 AM 49.4780 12.3400 308° West 460 529 34,000  Level FlightAware ADS-B
Thu 08:55:30 AM 49.5400 12.2160 308° West 460 529 34,000  Level FlightAware ADS-B
Thu 08:56:11 AM 49.5920 12.1100 307° West 460 529 34,000  Level FlightAware ADS-B
Thu 08:56:55 AM 49.6470 12.0000 308° West 459 528 34,000  Level FlightAware ADS-B
Thu 08:57:36 AM 49.7020 11.8880 307° West 460 529 34,000  Level FlightAware ADS-B
Thu 08:58:16 AM 49.7560 11.7790 308° West 462 532 34,000  Level FlightAware ADS-B
Thu 08:58:52 AM 49.8020 11.6840 307° West 461 531 34,000  Level FlightAware ADS-B
Thu 08:59:36 AM 49.8600 11.5660 307° West 465 535 34,000  Level FlightAware ADS-B
Thu 09:01:29 AM 49.9870 11.3060 307° West 467 537 34,000  Level FlightAware ADS-B
Thu 09:02:11 AM 50.0600 11.1520 306° West 463 533 34,000  Level FlightAware ADS-B
Thu 09:02:55 AM 50.1170 11.0330 307° West 462 532 34,000  Level FlightAware ADS-B
Thu 09:03:31 AM 50.1610 10.9410 307° West 460 529 34,000  Level FlightAware ADS-B
Thu 09:05:20 AM 50.2970 10.6530 307° West 460 529 34,000  Level FlightAware ADS-B
Thu 09:06:01 AM 50.3510 10.5400 307° West 460 529 34,000  Level FlightAware ADS-B
Thu 09:07:09 AM 50.4350 10.3590 306° West 457 526 34,000  Level FlightAware ADS-B
Thu 09:07:53 AM 50.4900 10.2400 306° West 453 521 34,000  Level FlightAware ADS-B
Thu 09:08:35 AM 50.5430 10.1270 306° West 455 524 34,000  Level FlightAware ADS-B
Thu 09:09:17 AM 50.5950 10.0140 306° West 456 525 34,000  Level FlightAware ADS-B
Thu 09:09:59 AM 50.6450 9.9050 306° West 455 524 34,000  Level FlightAware ADS-B
Thu 09:10:38 AM 50.6920 9.8020 306° West 455 524 34,000  Level FlightAware ADS-B
Thu 09:11:42 AM 50.7560 9.6620 306° West 455 524 34,000  Level FlightAware ADS-B
Thu 09:12:28 AM 50.8280 9.5020 306° West 455 524 34,000  Level FlightAware ADS-B
Thu 09:13:07 AM 50.8760 9.3950 305° West 455 524 34,000  Level FlightAware ADS-B
Thu 09:13:54 AM 50.9310 9.2720 305° West 453 521 34,000  Level FlightAware ADS-B
Thu 09:14:39 AM 50.9840 9.1530 305° West 454 522 34,000  Level FlightAware ADS-B
Thu 09:15:12 AM 51.0270 9.0560 305° West 454 522 34,000  Level FlightAware ADS-B
Thu 09:15:54 AM 51.0790 8.9390 305° West 455 524 34,000  Level FlightAware ADS-B
Thu 09:16:35 AM 51.1270 8.8300 305° West 456 525 34,000  Level FlightAware ADS-B
Thu 09:17:13 AM 51.1710 8.7230 303° West 454 522 34,000  Level FlightAware ADS-B
Thu 09:17:51 AM 51.2140 8.6130 302° West 453 521 34,000  Level FlightAware ADS-B
Thu 09:18:35 AM 51.2620 8.4880 302° West 458 527 34,000  Level FlightAware ADS-B
Thu 09:19:14 AM 51.3050 8.3800 303° West 461 531 34,000  Level FlightAware ADS-B
Thu 09:20:00 AM 51.3580 8.2420 302° West 464 534 34,000  Level FlightAware ADS-B
Thu 09:20:40 AM 51.4020 8.1280 302° West 465 535 34,000  Level FlightAware ADS-B
Thu 09:21:24 AM 51.4510 8.0020 302° West 465 535 34,000  Level FlightAware ADS-B
Thu 09:22:06 AM 51.4990 7.8770 302° West 466 536 34,000  Level FlightAware ADS-B
Thu 09:22:40 AM 51.5390 7.7720 302° West 468 539 34,000  Level FlightAware ADS-B
Thu 09:23:20 AM 51.5830 7.6560 301° West 470 541 34,000  Level FlightAware ADS-B
Thu 09:24:04 AM 51.6330 7.5250 302° West 471 542 34,000  Level FlightAware ADS-B
Thu 09:24:44 AM 51.6790 7.4040 302° West 471 542 34,000  Level FlightAware ADS-B
Thu 09:25:28 AM 51.7290 7.2710 301° West 471 542 34,000  Level FlightAware ADS-B
Thu 09:26:08 AM 51.7720 7.1540 301° West 473 544 34,000  Level FlightAware ADS-B
Thu 09:26:52 AM 51.8220 7.0210 301° West 473 544 34,000  Level FlightAware ADS-B
Thu 09:27:24 AM 51.8580 6.9240 301° West 474 545 34,000  Level FlightAware ADS-B
Thu 09:28:09 AM 51.9090 6.7840 301° West 477 549 34,000  Level FlightAware ADS-B
Thu 09:28:52 AM 51.9570 6.6530 301° West 479 551 34,000  Level FlightAware ADS-B
Thu 09:29:34 AM 52.0010 6.5200 298° West 483 556 34,000  Level FlightAware ADS-B
Thu 09:30:14 AM 52.0420 6.3920 298° West 485 558 34,000  Level FlightAware ADS-B
Thu 09:30:54 AM 52.0840 6.2610 298° West 486 559 34,000  Level FlightAware ADS-B
Thu 09:31:40 AM 52.1310 6.1150 298° West 487 560 34,000  Level FlightAware ADS-B
Thu 09:32:20 AM 52.1740 5.9830 298° West 489 563 34,000  Level FlightAware ADS-B
Thu 09:33:04 AM 52.2190 5.8400 297° West 490 564 34,000  Level FlightAware ADS-B
Thu 09:33:42 AM 52.2580 5.7170 297° West 491 565 34,000  Level FlightAware ADS-B
Thu 09:34:28 AM 52.3030 5.5720 297° West 491 565 34,000  Level FlightAware ADS-B
Thu 09:35:08 AM 52.3470 5.4320 297° West 492 566 34,000  Level FlightAware ADS-B
Thu 09:35:38 AM 52.3805 5.3332 297° West 470 541 34,000  Level FlightAware UK
Thu 09:35:50 AM 52.3900 5.2940 297° West 491 565 34,000  Level FlightAware ADS-B
Thu 09:36:34 AM 52.4340 5.1490 297° West 490 564 34,000  Level FlightAware ADS-B
Thu 09:37:14 AM 52.4760 5.0150 297° West 488 562 34,000  Level FlightAware ADS-B
Thu 09:37:57 AM 52.5170 4.8780 296° West 487 560 34,000  Level FlightAware ADS-B
Thu 09:38:38 AM 52.5590 4.7390 296° West 487 560 34,000  Level FlightAware ADS-B
Thu 09:39:22 AM 52.6030 4.5950 297° West 485 558 34,000  Level FlightAware ADS-B
Thu 09:40:02 AM 52.6420 4.4660 297° West 483 556 34,000  Level FlightAware ADS-B
Thu 09:40:45 AM 52.6860 4.3190 296° West 483 556 34,000  Level FlightAware ADS-B
Thu 09:41:26 AM 52.7250 4.1850 296° West 480 552 34,000  Level FlightAware ADS-B
Thu 09:41:54 AM 52.7520 4.0930 296° West 480 552 34,000  Level FlightAware ADS-B
Thu 09:42:35 AM 52.7930 3.9560 296° West 479 551 34,000  Level FlightAware ADS-B
Thu 09:43:15 AM 52.8310 3.8250 296° West 477 549 34,000  Level FlightAware ADS-B
Thu 09:43:55 AM 52.8701 3.6912 296° West 470 541 34,000  Level FlightAware UK
Thu 09:43:55 AM 52.8680 3.6970 296° West 477 549 34,000  Level FlightAware ADS-B
Thu 09:44:25 AM 52.8985 3.5928 296° West 470 541 34,000  Level FlightAware UK
Thu 09:44:37 AM 52.9080 3.5580 296° West 477 549 34,000  Level FlightAware ADS-B
Thu 09:45:07 AM 52.9382 3.4555 296° West 468 539 34,000  Level FlightAware UK
Thu 09:45:17 AM 52.9440 3.4340 296° West 475 547 34,000  Level FlightAware ADS-B
Thu 09:46:01 AM 52.9870 3.2820 295° West 476 548 34,000  Level FlightAware ADS-B
Thu 09:46:41 AM 53.0230 3.1550 295° West 477 549 34,000  Level FlightAware ADS-B
Thu 09:47:18 AM 53.0580 3.0300 295° West 478 550 34,000  Level FlightAware ADS-B
Thu 09:48:08 AM 53.1040 2.8660 295° West 477 549 34,000  Level FlightAware ADS-B
Thu 09:48:48 AM 53.1420 2.7300 295° West 476 548 34,000  Level FlightAware ADS-B
Thu 09:48:49 AM 53.1445 2.7213 295° West 470 541 34,000  Level FlightAware UK
Thu 09:49:25 AM 53.1775 2.6026 295° West 470 541 34,000  Level FlightAware UK
Thu 09:49:28 AM 53.1770 2.6020 295° West 476 548 34,000 128 Level FlightAware ADS-B
Thu 09:50:12 AM 53.2120 2.4490 291° West 479 551 34,100 409 Climbing FlightAware ADS-B
Thu 09:50:56 AM 53.2360 2.2890 284° West 482 555 34,600 608 Climbing FlightAware ADS-B
Thu 09:51:31 AM 53.2560 2.1575 284° West 470 541 34,900 585 Climbing FlightAware UK
Thu 09:51:37 AM 53.2580 2.1410 284° West 481 554 35,000 667 Climbing FlightAware ADS-B
Thu 09:52:07 AM 53.2751 2.0279 284° West 470 541 35,300 558 Climbing FlightAware UK
Thu 09:52:20 AM 53.2813 1.9822 284° West 481 554 35,400 558 Climbing FlightAware ADS-B
Thu 09:52:50 AM 53.2969 1.8729 283° West 482 555 35,700 581 Climbing FlightAware ADS-B
Thu 09:53:22 AM 53.3133 1.7575 283° West 481 554 36,000 261 Climbing FlightAware ADS-B
Thu 09:53:59 AM 53.3322 1.6237 283° West 480 552 36,000  Level FlightAware ADS-B
Thu 09:54:37 AM 53.3512 1.4867 283° West 479 551 36,000  Level FlightAware ADS-B
Thu 09:55:07 AM 53.3663 1.3797 283° West 468 539 36,000  Level FlightAware UK
Thu 09:55:08 AM 53.3660 1.3810 283° West 479 551 36,000  Level FlightAware ADS-B
Thu 09:55:17 AM 53.3710 1.3431 282° West 479 551 36,000  Level FlightAware ADS-B
Thu 09:55:50 AM 53.3872 1.2247 283° West 479 551 36,000  Level FlightAware ADS-B
Thu 09:56:29 AM 53.4060 1.0880 283° West 478 550 36,000  Level FlightAware ADS-B
Thu 09:56:55 AM 53.4189 0.9907 283° West 479 551 36,000  Level FlightAware ADS-B
Thu 09:57:30 AM 53.4364 0.8614 283° West 468 539 36,000  Level FlightAware UK
Thu 09:57:58 AM 53.4492 0.7632 283° West 479 551 36,000  Level FlightAware ADS-B
Thu 09:58:33 AM 53.4660 0.6350 282° West 476 548 36,000  Level FlightAware ADS-B
Thu 09:59:06 AM 53.4812 0.5185 282° West 475 547 36,000  Level FlightAware ADS-B
Thu 09:59:39 AM 53.4964 0.4015 282° West 474 545 36,000  Level FlightAware ADS-B
Thu 10:00:10 AM 53.5109 0.2892 282° West 473 544 36,000  Level FlightAware ADS-B
Thu 10:00:40 AM 53.5245 0.1815 282° West 473 544 36,000  Level FlightAware ADS-B
Thu 10:01:10 AM 53.5381 0.0737 282° West 473 544 36,000  Level FlightAware ADS-B
Thu 10:01:40 AM 53.5516 -0.0343 282° West 473 544 36,000  Level FlightAware ADS-B
Thu 10:02:11 AM 53.5652 -0.1438 282° West 474 545 36,000  Level FlightAware ADS-B
Thu 10:03:07 AM 53.5903 -0.3473 282° West 475 547 36,000  Level FlightAware ADS-B
Thu 10:03:53 AM 53.6107 -0.5148 282° West 468 539 36,000  Level FlightAware UK
Thu 10:04:11 AM 53.6180 -0.5760 282° West 475 547 36,000  Level FlightAware ADS-B
Thu 10:04:41 AM 53.6310 -0.6852 281° West 474 545 36,000  Level FlightAware ADS-B
Thu 10:05:20 AM 53.6479 -0.8267 281° West 474 545 36,000  Level FlightAware ADS-B
Thu 10:05:57 AM 53.6634 -0.9593 281° West 474 545 36,000  Level FlightAware ADS-B
Thu 10:06:30 AM 53.6769 -1.0771 281° West 474 545 36,000  Level FlightAware ADS-B
Thu 10:07:04 AM 53.6888 -1.2043 279° West 474 545 36,000  Level FlightAware ADS-B
Thu 10:07:35 AM 53.6947 -1.3147 275° West 474 545 36,000  Level FlightAware ADS-B
Thu 10:08:18 AM 53.7030 -1.4726 275° West 474 545 36,000  Level FlightAware ADS-B
Thu 10:09:08 AM 53.7130 -1.6564 275° West 469 540 36,000  Level FlightAware ADS-B
Thu 10:09:39 AM 53.7192 -1.7695 275° West 468 539 36,000  Level FlightAware ADS-B
Thu 10:10:02 AM 53.7244 -1.8514 276° West 468 539 36,000  Level FlightAware ADS-B
Thu 10:10:40 AM 53.7420 -1.9866 282° West 466 536 36,000  Level FlightAware ADS-B
Thu 10:11:11 AM 53.7559 -2.0969 282° West 465 535 36,000  Level FlightAware ADS-B
Thu 10:12:19 AM 53.7860 -2.3378 282° West 465 535 36,000  Level FlightAware ADS-B
Thu 10:12:59 AM 53.8030 -2.4710 282° West 463 533 36,000  Level FlightAware ADS-B
Thu 10:13:43 AM 53.8200 -2.6150 281° West 462 532 36,000  Level FlightAware ADS-B
Thu 10:14:27 AM 53.8370 -2.7590 281° West 462 532 36,000  Level FlightAware ADS-B
Thu 10:15:05 AM 53.8550 -2.9070 282° West 461 531 36,000  Level FlightAware ADS-B
Thu 10:15:34 AM 53.8670 -3.0100 281° West 460 529 36,000  Level FlightAware ADS-B
Thu 10:16:14 AM 53.8830 -3.1410 282° West 461 531 36,000  Level FlightAware ADS-B
Thu 10:16:50 AM 53.9000 -3.2920 281° West 461 531 36,000  Level FlightAware ADS-B
Thu 10:17:45 AM 53.9200 -3.4740 281° West 461 531 36,000  Level FlightAware ADS-B
Thu 10:18:25 AM 53.9390 -3.6290 282° West 462 532 36,000  Level FlightAware ADS-B
Thu 10:19:06 AM 53.9550 -3.7710 281° West 459 528 36,000  Level FlightAware ADS-B
Thu 10:19:45 AM 53.9773 -3.9133 281° West 460 529 36,000  Level FlightAware UK
Thu 10:19:46 AM 53.9770 -3.9110 281° West 459 528 36,000  Level FlightAware ADS-B
Thu 10:20:32 AM 54.0110 -4.0590 291° West 458 527 36,000  Level FlightAware ADS-B
Thu 10:21:07 AM 54.0390 -4.1730 293° West 456 525 36,000  Level FlightAware ADS-B
Thu 10:21:52 AM 54.0730 -4.3150 292° West 457 526 36,000  Level FlightAware ADS-B
Thu 10:22:33 AM 54.1099 -4.4738 292° West 462 532 36,000  Level FlightAware UK
Thu 10:22:37 AM 54.1100 -4.4760 292° West 456 525 36,000  Level FlightAware ADS-B
Thu 10:23:09 AM 54.1379 -4.5946 292° West 462 532 36,000  Level FlightAware UK
Thu 10:23:32 AM 54.1510 -4.6510 292° West 455 524 36,000  Level FlightAware ADS-B
Thu 10:24:09 AM 54.1843 -4.7954 292° West 460 529 36,000  Level FlightAware UK
Thu 10:24:16 AM 54.1880 -4.8110 292° West 453 521 36,000  Level FlightAware ADS-B
Thu 10:24:53 AM 54.2170 -4.9370 292° West 456 525 36,000  Level FlightAware ADS-B
Thu 10:25:33 AM 54.2483 -5.0758 292° West 462 532 36,000  Level FlightAware UK
Thu 10:25:39 AM 54.2520 -5.0910 292° West 455 524 36,000  Level FlightAware ADS-B
Thu 10:26:09 AM 54.2758 -5.1964 292° West 462 532 36,000  Level FlightAware UK
Thu 10:26:21 AM 54.2820 -5.2260 292° West 455 524 36,000  Level FlightAware ADS-B
Thu 10:27:02 AM 54.3150 -5.3710 291° West 453 521 36,000  Level FlightAware ADS-B
Thu 10:27:38 AM 54.3420 -5.4940 291° West 454 522 36,000  Level FlightAware ADS-B
Thu 10:28:15 AM 54.3695 -5.6184 291° West 458 527 36,000  Level FlightAware UK
Thu 10:28:23 AM 54.3740 -5.6380 291° West 456 525 36,000  Level FlightAware ADS-B
Thu 10:29:02 AM 54.4040 -5.7750 291° West 457 526 36,000  Level FlightAware ADS-B
Thu 10:29:44 AM 54.4350 -5.9190 291° West 457 526 36,000  Level FlightAware ADS-B
Thu 10:29:45 AM 54.4362 -5.9231 291° West 462 532 36,000  Level FlightAware UK
Thu 10:30:15 AM 54.4583 -6.0252 291° West 460 529 36,000  Level FlightAware UK
Thu 10:30:24 AM 54.4650 -6.0560 291° West 458 527 36,000  Level FlightAware ADS-B
Thu 10:31:06 AM 54.4940 -6.1890 291° West 460 529 36,000  Level FlightAware ADS-B
Thu 10:31:51 AM 54.5290 -6.3529 291° West 462 532 36,000  Level FlightAware UK
Thu 10:31:52 AM 54.5270 -6.3450 291° West 462 532 36,000  Level FlightAware ADS-B
Thu 10:32:27 AM 54.5530 -6.4680 290° West 463 533 36,000  Level FlightAware ADS-B
Thu 10:32:57 AM 54.5775 -6.5815 290° West 462 532 36,000  Level FlightAware UK
Thu 10:33:08 AM 54.5850 -6.6200 290° West 463 533 36,000  Level FlightAware ADS-B
Thu 10:33:52 AM 54.6150 -6.7630 290° West 464 534 36,000  Level FlightAware ADS-B
Thu 10:34:27 AM 54.6427 -6.8941 290° West 462 532 36,000  Level FlightAware UK
Thu 10:34:32 AM 54.6450 -6.9080 290° West 464 534 36,000  Level FlightAware ADS-B
Thu 10:35:10 AM 54.6730 -7.0400 290° West 461 531 36,000  Level FlightAware ADS-B
Thu 10:35:55 AM 54.7050 -7.1950 290° West 462 532 36,000  Level FlightAware ADS-B
Thu 10:35:57 AM 54.7072 -7.2069 290° West 462 532 36,000  Level FlightAware UK
Thu 10:36:27 AM 54.7284 -7.3118 290° West 462 532 36,000  Level FlightAware UK
Thu 10:36:36 AM 54.7340 -7.3380 290° West 463 533 36,000  Level FlightAware ADS-B
Thu 10:37:25 AM 54.7690 -7.5120 289° West 466 536 36,000  Level FlightAware ADS-B
Thu 10:38:02 AM 54.7968 -7.6500 289° West 462 532 36,000  Level FlightAware UK
Thu 10:38:05 AM 54.7960 -7.6480 289° West 468 539 36,000  Level FlightAware ADS-B
Thu 10:38:46 AM 54.8260 -7.7980 289° West 469 540 36,000  Level FlightAware ADS-B
Thu 10:39:23 AM 54.8500 -7.9220 289° West 470 541 36,000  Level FlightAware ADS-B
Thu 10:40:02 AM 54.8811 -8.0789 289° West 464 534 36,000  Level FlightAware UK
Thu 10:40:06 AM 54.8820 -8.0850 289° West 472 543 36,000  Level FlightAware ADS-B
Thu 10:40:46 AM 54.9100 -8.2240 289° West 471 542 36,000  Level FlightAware ADS-B
Thu 10:41:31 AM 54.9420 -8.3920 289° West 473 544 36,000  Level FlightAware ADS-B
Thu 10:41:32 AM 54.9441 -8.4027 289° West 462 532 36,000  Level FlightAware UK
Thu 10:42:02 AM 54.9648 -8.5104 289° West 462 532 36,000  Level FlightAware UK
Thu 10:42:16 AM 54.9730 -8.5550 289° West 474 545 36,000  Level FlightAware ADS-B
Thu 10:42:51 AM 54.9970 -8.6790 289° West 475 547 36,000  Level FlightAware ADS-B
Thu 10:43:36 AM 55.0280 -8.8440 289° West 477 549 36,000  Level FlightAware ADS-B
Thu 10:43:38 AM 55.0299 -8.8572 289° West 464 534 36,000  Level FlightAware UK
Thu 10:44:08 AM 55.0502 -8.9665 289° West 464 534 36,000  Level FlightAware UK
Thu 10:44:21 AM 55.0580 -9.0090 289° West 477 549 36,000  Level FlightAware ADS-B
Thu 10:45:01 AM 55.0860 -9.1560 288° West 476 548 36,000  Level FlightAware ADS-B
Thu 10:45:36 AM 55.1080 -9.2770 288° West 476 548 36,000  Level FlightAware ADS-B
Thu 10:46:16 AM 55.1360 -9.4280 288° West 476 548 36,000  Level FlightAware ADS-B
Thu 10:46:51 AM 55.1590 -9.5560 288° West 477 549 36,000  Level FlightAware ADS-B
Thu 10:47:36 AM 55.1890 -9.7220 288° West 479 551 36,000  Level FlightAware ADS-B
Thu 10:48:22 AM 55.2170 -9.8850 287° West 477 549 36,000  Level FlightAware ADS-B
Thu 10:49:06 AM 55.2470 -10.0530 287° West 476 548 36,000  Level FlightAware ADS-B
Thu 10:49:46 AM 55.2730 -10.1990 287° West 476 548 36,000  Level FlightAware ADS-B
Thu 10:50:31 AM 55.3020 -10.3660 287° West 474 545 36,000  Level FlightAware ADS-B
Thu 10:51:12 AM 55.3280 -10.5210 286° West 473 544 36,000  Level FlightAware ADS-B
Thu 10:51:57 AM 55.3560 -10.6850 287° West 472 543 36,000  Level FlightAware ADS-B
Thu 10:52:37 AM 55.3790 -10.8180 287° West 474 545 36,000  Level FlightAware ADS-B
Thu 10:53:17 AM 55.4050 -10.9780 286° West 472 543 36,000  Level FlightAware ADS-B
Thu 10:54:03 AM 55.4330 -11.1460 286° West 470 541 36,000  Level FlightAware ADS-B
Thu 10:54:39 AM 55.4550 -11.2790 286° West 471 542 36,000  Level FlightAware ADS-B
Thu 10:55:18 AM 55.4790 -11.4260 286° West 472 543 36,000  Level FlightAware ADS-B
Thu 10:56:04 AM 55.5060 -11.5940 286° West 472 543 36,000  Level FlightAware ADS-B
Thu 10:56:49 AM 55.5340 -11.7660 286° West 470 541 36,000  Level FlightAware ADS-B
Thu 10:57:29 AM 55.5570 -11.9100 286° West 469 540 36,000  Level FlightAware ADS-B
Thu 10:58:14 AM 55.5830 -12.0770 285° West 469 540 36,000  Level FlightAware ADS-B
Thu 10:58:54 AM 55.6050 -12.2200 285° West 469 540 36,000  Level FlightAware ADS-B
Thu 10:59:49 AM 55.6370 -12.4290 285° West 470 541 36,000  Level FlightAware ADS-B
Thu 11:00:40 AM 55.6650 -12.6120 285° West 470 541 36,000  Level FlightAware ADS-B
Thu 11:01:24 AM 55.6910 -12.7840 285° West 470 541 36,000  Level FlightAware ADS-B
Thu 11:02:04 AM 55.7130 -12.9320 285° West 471 542 36,000  Level FlightAware ADS-B
Thu 11:02:39 AM 55.7330 -13.0660 285° West 472 543 36,000  Level FlightAware ADS-B
Thu 11:03:19 AM 55.7550 -13.2140 285° West 473 544 36,000  Level FlightAware ADS-B
Thu 11:03:59 AM 55.7760 -13.3610 284° West 473 544 36,000  Level FlightAware ADS-B
Thu 11:04:54 AM 55.8030 -13.5500 284° West 473 544 36,000  Level FlightAware ADS-B
Thu 11:05:45 AM 55.8260 -13.7140 284° West 473 544 36,000  Level FlightAware ADS-B
Thu 11:06:23 AM 55.8430 -13.8360 284° West 473 544 36,000  Level FlightAware ADS-B
Thu 11:07:00 AM 55.8600 -13.9550 284° West 473 544 36,000  Level FlightAware ADS-B
Thu 11:07:46 AM 55.8800 -14.1030 284° West 473 544 36,000  Level FlightAware ADS-B
Thu 11:08:46 AM 55.9070 -14.2960 284° West 473 544 36,000  Level FlightAware ADS-B
Thu 11:09:23 AM 55.9240 -14.4150 284° West 473 544 36,000  Level FlightAware ADS-B
Thu 11:10:11 AM 55.9450 -14.5700 284° West 473 544 36,000  Level FlightAware ADS-B
Thu 11:10:47 AM 55.9620 -14.6860 285° West 473 544 36,000  Level FlightAware ADS-B
Thu 11:11:50 AM 55.9900 -14.8890 284° West 473 544 36,000  Level FlightAware ADS-B
Thu 11:12:31 AM 56.0080 -15.0210 284° West 473 544 36,000  Level FlightAware ADS-B
Thu 11:13:08 AM 56.0250 -15.1410 284° West 473 544 36,000  Level FlightAware ADS-B
Thu 11:13:56 AM 56.0470 -15.2960 284° West 473 544 36,000  Level FlightAware ADS-B
Thu 11:14:32 AM 56.0630 -15.4120 284° West 473 544 36,000  Level FlightAware ADS-B
Thu 11:17:00 AM 56.1360 -15.9134 285° West  Level Estimated
Thu 11:18:00 AM 56.1651 -16.1172 284° West  Level Estimated
Thu 11:19:00 AM 56.1938 -16.3213 284° West  Level Estimated
Thu 11:20:00 AM 56.2221 -16.5257 284° West  Level Estimated
Thu 11:21:00 AM 56.2501 -16.7304 284° West  Level Estimated
Thu 11:22:00 AM 56.2778 -16.9354 284° West  Level Estimated
Thu 11:23:00 AM 56.3052 -17.1407 284° West  Level Estimated
Thu 11:24:00 AM 56.3322 -17.3463 283° West  Level Estimated
Thu 11:25:00 AM 56.3588 -17.5522 283° West  Level Estimated
Thu 11:26:00 AM 56.3852 -17.7584 283° West  Level Estimated
Thu 11:27:00 AM 56.4111 -17.9648 283° West  Level Estimated
Thu 11:28:00 AM 56.4368 -18.1715 283° West  Level Estimated
Thu 11:29:00 AM 56.4621 -18.3785 283° West  Level Estimated
Thu 11:30:00 AM 56.4870 -18.5858 282° West  Level Estimated
Thu 11:31:00 AM 56.5116 -18.7934 282° West  Level Estimated
Thu 11:32:00 AM 56.5359 -19.0012 282° West  Level Estimated
Thu 11:33:00 AM 56.5598 -19.2093 282° West  Level Estimated
Thu 11:34:00 AM 57.0000 -20.0000 285° West 446 513 36,000  Level ETMS Enhanced Traffic Management System
Thu 11:34:00 AM 56.5833 -19.4177 282° West  Level Estimated
Thu 11:35:00 AM 56.6065 -19.6263 282° West  Level Estimated
Thu 11:36:00 AM 56.6294 -19.8351 281° West  Level Estimated
Thu 11:37:00 AM 56.6519 -20.0442 281° West  Level Estimated
Thu 11:38:00 AM 56.6741 -20.2536 281° West  Level Estimated
Thu 11:39:00 AM 56.6959 -20.4632 281° West  Level Estimated
Thu 11:40:00 AM 57.1824 -21.3287 284° West 446 513 36,000  Level FlightAware Transoceanic
Thu 11:41:00 AM 57.2114 -21.5513 283° West 446 513 36,000  Level FlightAware Transoceanic
Thu 11:42:00 AM 57.2401 -21.7744 283° West 446 513 36,000  Level FlightAware Transoceanic
Thu 11:43:00 AM 57.2683 -21.9978 283° West 446 513 36,000  Level FlightAware Transoceanic
Thu 11:44:00 AM 57.2961 -22.2215 283° West 446 513 36,000  Level FlightAware Transoceanic
Thu 11:45:00 AM 57.3236 -22.4456 283° West 446 513 36,000  Level FlightAware Transoceanic
Thu 11:46:00 AM 57.3506 -22.6700 282° West 446 513 36,000  Level FlightAware Transoceanic
Thu 11:47:00 AM 57.3773 -22.8947 282° West 446 513 36,000  Level FlightAware Transoceanic
Thu 11:48:00 AM 57.4035 -23.1198 282° West 446 513 36,000  Level FlightAware Transoceanic
Thu 11:49:00 AM 57.4293 -23.3451 282° West 446 513 36,000  Level FlightAware Transoceanic
Thu 11:50:00 AM 57.4548 -23.5708 282° West 446 513 36,000  Level FlightAware Transoceanic
Thu 11:51:00 AM 57.4798 -23.7968 282° West 446 513 36,000  Level FlightAware Transoceanic
Thu 11:52:00 AM 57.5044 -24.0231 281° West 446 513 36,000  Level FlightAware Transoceanic
Thu 11:53:00 AM 57.5287 -24.2497 281° West 446 513 36,000  Level FlightAware Transoceanic
Thu 11:54:00 AM 57.5525 -24.4766 281° West 446 513 36,000  Level FlightAware Transoceanic
Thu 11:55:00 AM 57.5759 -24.7038 281° West 446 513 36,000  Level FlightAware Transoceanic
Thu 11:56:00 AM 57.5989 -24.9313 281° West 446 513 36,000  Level FlightAware Transoceanic
Thu 11:57:00 AM 57.6215 -25.1591 280° West 446 513 36,000  Level FlightAware Transoceanic
Thu 11:58:00 AM 57.6437 -25.3872 280° West 446 513 36,000  Level FlightAware Transoceanic
Thu 11:59:00 AM 57.6654 -25.6155 280° West 446 513 36,000  Level FlightAware Transoceanic
Thu 12:00:00 PM 57.6868 -25.8441 280° West 446 513 36,000  Level FlightAware Transoceanic
Thu 12:01:00 PM 57.7077 -26.0730 280° West 446 513 36,000  Level FlightAware Transoceanic
Thu 12:02:00 PM 57.7283 -26.3021 279° West 446 513 36,000  Level FlightAware Transoceanic
Thu 12:03:00 PM 57.7484 -26.5315 279° West 446 513 36,000  Level FlightAware Transoceanic
Thu 12:04:00 PM 57.7681 -26.7612 279° West 446 513 36,000  Level FlightAware Transoceanic
Thu 12:05:00 PM 57.7874 -26.9911 279° West 446 513 36,000  Level FlightAware Transoceanic
Thu 12:06:00 PM 57.8063 -27.2212 279° West 446 513 36,000  Level FlightAware Transoceanic
Thu 12:07:00 PM 57.8247 -27.4516 278° West 446 513 36,000  Level FlightAware Transoceanic
Thu 12:08:00 PM 57.8428 -27.6822 278° West 446 513 36,000  Level FlightAware Transoceanic
Thu 12:09:00 PM 57.8604 -27.9130 278° West 446 513 36,000  Level FlightAware Transoceanic
Thu 12:10:00 PM 57.8776 -28.1441 278° West 446 513 36,000  Level FlightAware Transoceanic
Thu 12:11:00 PM 57.8944 -28.3754 278° West 446 513 36,000  Level FlightAware Transoceanic
Thu 12:12:00 PM 57.9107 -28.6068 277° West 446 513 36,000  Level FlightAware Transoceanic
Thu 12:13:00 PM 57.9267 -28.8386 277° West 446 513 36,000  Level FlightAware Transoceanic
Thu 12:14:00 PM 57.9422 -29.0705 277° West 446 513 36,000  Level FlightAware Transoceanic
Thu 12:15:00 PM 57.9573 -29.3026 277° West 446 513 36,000  Level FlightAware Transoceanic
Thu 12:16:00 PM 57.9719 -29.5348 277° West 446 513 36,000  Level FlightAware Transoceanic
Thu 12:17:00 PM 57.9862 -29.7673 276° West 446 513 36,000  Level FlightAware Transoceanic
Thu 12:18:00 PM 57.9992 -29.9870 276° West  Level FlightAware Approximate
Thu 12:19:00 PM 58.0119 -30.2069 276° West  Level FlightAware Approximate
Thu 12:20:00 PM 58.0259 -30.1889 285° West  Level FlightAware Approximate
Thu 12:21:00 PM 58.0549 -30.4033 284° West  Level FlightAware Approximate
Thu 12:22:00 PM 58.0836 -30.6181 284° West  Level FlightAware Approximate
Thu 12:23:00 PM 58.1119 -30.8333 284° West  Level FlightAware Approximate
Thu 12:24:00 PM 58.1398 -31.0488 284° West  Level FlightAware Approximate
Thu 12:25:00 PM 58.1674 -31.2646 284° West  Level FlightAware Approximate
Thu 12:26:00 PM 58.1946 -31.4807 284° West  Level FlightAware Approximate
Thu 12:27:00 PM 58.2214 -31.6972 283° West  Level FlightAware Approximate
Thu 12:28:00 PM 58.2479 -31.9141 283° West  Level FlightAware Approximate
Thu 12:29:00 PM 58.2740 -32.1312 283° West  Level FlightAware Approximate
Thu 12:30:00 PM 58.2998 -32.3487 283° West  Level FlightAware Approximate
Thu 12:31:00 PM 58.3251 -32.5664 283° West  Level FlightAware Approximate
Thu 12:32:00 PM 58.3502 -32.7845 283° West  Level FlightAware Approximate
Thu 12:33:00 PM 58.3769 -33.0020 283° West  Level FlightAware Approximate
Thu 12:34:00 PM 58.4032 -33.2198 283° West  Level FlightAware Approximate
Thu 12:35:00 PM 58.4292 -33.4380 283° West  Level FlightAware Approximate
Thu 12:36:00 PM 58.4548 -33.6565 283° West  Level FlightAware Approximate
Thu 12:37:00 PM 58.4800 -33.8753 283° West  Level FlightAware Approximate
Thu 12:38:00 PM 58.5048 -34.0944 282° West  Level FlightAware Approximate
Thu 12:39:00 PM 58.5288 -34.3140 282° West  Level FlightAware Approximate
Thu 12:40:00 PM 58.5520 -34.5340 282° West  Level FlightAware Approximate
Thu 12:41:00 PM 58.5748 -34.7544 281° West  Level FlightAware Approximate
Thu 12:42:00 PM 58.5972 -34.9751 281° West  Level FlightAware Approximate
Thu 12:43:00 PM 58.6193 -35.1960 281° West  Level FlightAware Approximate
Thu 12:44:00 PM 58.6409 -35.4172 281° West  Level FlightAware Approximate
Thu 12:45:00 PM 58.6622 -35.6387 281° West  Level FlightAware Approximate
Thu 12:46:00 PM 58.6832 -35.8604 280° West  Level FlightAware Approximate
Thu 12:47:00 PM 58.7037 -36.0824 280° West  Level FlightAware Approximate
Thu 12:48:00 PM 58.7238 -36.3047 280° West  Level FlightAware Approximate
Thu 12:50:44 PM 58.7769 -36.9135 280° West  Level FlightAware Approximate
Thu 12:52:00 PM 58.8005 -37.1963 279° West  Level FlightAware Approximate
Thu 12:53:00 PM 58.8188 -37.4198 279° West  Level FlightAware Approximate
Thu 12:54:00 PM 58.8366 -37.6435 279° West  Level FlightAware Approximate
Thu 12:55:00 PM 58.8540 -37.8675 279° West  Level FlightAware Approximate
Thu 12:56:00 PM 58.8711 -38.0917 278° West  Level FlightAware Approximate
Thu 12:57:00 PM 58.8878 -38.3161 278° West  Level FlightAware Approximate
Thu 12:58:00 PM 58.9040 -38.5407 278° West  Level FlightAware Approximate
Thu 12:59:00 PM 58.9199 -38.7655 278° West  Level FlightAware Approximate
Thu 01:00:00 PM 58.9354 -38.9905 278° West  Level FlightAware Approximate
Thu 01:01:00 PM 58.9506 -39.2158 278° West  Level FlightAware Approximate
Thu 01:02:00 PM 58.9653 -39.4412 277° West  Level FlightAware Approximate
Thu 01:03:00 PM 58.9796 -39.6668 277° West  Level FlightAware Approximate
Thu 01:04:00 PM 58.9935 -39.8926 277° West  Level FlightAware Approximate
Thu 01:05:00 PM 59.0043 -40.1191 274° West  Level FlightAware Approximate
Thu 01:06:00 PM 59.0122 -40.3461 274° West  Level FlightAware Approximate
Thu 01:07:00 PM 59.0197 -40.5732 274° West  Level FlightAware Approximate
Thu 01:08:00 PM 59.0269 -40.8005 274° West  Level FlightAware Approximate
Thu 01:09:00 PM 59.0336 -41.0278 273° West  Level FlightAware Approximate
Thu 01:10:00 PM 59.0399 -41.2552 273° West  Level FlightAware Approximate
Thu 01:11:00 PM 59.0458 -41.4827 273° West  Level FlightAware Approximate
Thu 01:12:00 PM 59.0513 -41.7103 273° West  Level FlightAware Approximate
Thu 01:13:00 PM 59.0565 -41.9379 273° West  Level FlightAware Approximate
Thu 01:14:00 PM 59.0612 -42.1656 272° West  Level FlightAware Approximate
Thu 01:15:00 PM 59.0655 -42.3934 272° West  Level FlightAware Approximate
Thu 01:16:00 PM 59.0695 -42.6212 272° West  Level FlightAware Approximate
Thu 01:17:00 PM 59.0730 -42.8491 272° West  Level FlightAware Approximate
Thu 01:18:00 PM 59.0761 -43.0770 272° West  Level FlightAware Approximate
Thu 01:19:00 PM 59.0788 -43.3049 271° West  Level FlightAware Approximate
Thu 01:20:00 PM 59.0812 -43.5329 271° West  Level FlightAware Approximate
Thu 01:21:00 PM 59.0831 -43.7609 271° West  Level FlightAware Approximate
Thu 01:22:00 PM 59.0846 -43.9890 271° West  Level FlightAware Approximate
Thu 01:23:00 PM 59.0858 -44.2170 271° West  Level FlightAware Approximate
Thu 01:24:00 PM 59.0865 -44.4451 270° West  Level FlightAware Approximate
Thu 01:25:00 PM 59.0868 -44.6732 270° West  Level FlightAware Approximate
Thu 01:26:00 PM 59.0868 -44.9013 270° West  Level FlightAware Approximate
Thu 01:27:00 PM 59.0863 -45.1293 270° West  Level FlightAware Approximate
Thu 01:28:00 PM 59.0854 -45.3574 270° West  Level FlightAware Approximate
Thu 01:29:00 PM 59.0841 -45.5854 269° West  Level FlightAware Approximate
Thu 01:30:00 PM 59.0830 -45.8135 270° West  Level FlightAware Approximate
Thu 01:31:00 PM 59.0819 -46.0415 270° West  Level FlightAware Approximate
Thu 01:32:00 PM 59.0805 -46.2695 269° West  Level FlightAware Approximate
Thu 01:33:00 PM 59.0787 -46.4975 269° West  Level FlightAware Approximate
Thu 01:34:00 PM 59.0764 -46.7255 269° West  Level FlightAware Approximate
Thu 01:35:00 PM 59.0738 -46.9534 269° West  Level FlightAware Approximate
Thu 01:36:00 PM 59.0707 -47.1814 269° West  Level FlightAware Approximate
Thu 01:37:00 PM 59.0673 -47.4092 268° West  Level FlightAware Approximate
Thu 01:38:00 PM 59.0634 -47.6370 268° West  Level FlightAware Approximate
Thu 01:39:00 PM 59.0592 -47.8648 268° West  Level FlightAware Approximate
Thu 01:40:00 PM 59.0546 -48.0925 268° West  Level FlightAware Approximate
Thu 01:41:00 PM 59.0495 -48.3201 268° West  Level FlightAware Approximate
Thu 01:42:00 PM 59.0441 -48.5477 267° West  Level FlightAware Approximate
Thu 01:43:00 PM 59.0383 -48.7752 267° West  Level FlightAware Approximate
Thu 01:44:00 PM 59.0321 -49.0026 267° West  Level FlightAware Approximate
Thu 01:45:00 PM 59.0254 -49.2299 267° West  Level FlightAware Approximate
Thu 01:46:00 PM 59.0184 -49.4572 267° West  Level FlightAware Approximate
Thu 01:47:00 PM 59.0110 -49.6843 266° West  Level FlightAware Approximate
Thu 01:48:00 PM 59.0032 -49.9113 266° West  Level FlightAware Approximate
Thu 01:49:00 PM 58.9794 -50.1327 253° West  Level FlightAware Approximate
Thu 01:50:00 PM 58.9453 -50.3501 253° West  Level FlightAware Approximate
Thu 01:51:00 PM 58.9108 -50.5671 253° West  Level FlightAware Approximate
Thu 01:52:00 PM 58.8760 -50.7836 253° West  Level FlightAware Approximate
Thu 01:53:00 PM 58.8408 -50.9997 253° West  Level FlightAware Approximate
Thu 01:54:00 PM 58.8052 -51.2154 252° West  Level FlightAware Approximate
Thu 01:55:00 PM 58.7693 -51.4306 252° West  Level FlightAware Approximate
Thu 01:56:00 PM 58.7330 -51.6454 252° West  Level FlightAware Approximate
Thu 01:57:00 PM 58.6964 -51.8597 252° West  Level FlightAware Approximate
Thu 01:58:00 PM 58.6594 -52.0736 252° West  Level FlightAware Approximate
Thu 01:59:00 PM 58.6220 -52.2870 252° West  Level FlightAware Approximate
Thu 02:00:00 PM 58.5844 -52.4999 251° West  Level FlightAware Approximate
Thu 02:01:00 PM 58.5463 -52.7124 251° West  Level FlightAware Approximate
Thu 02:02:00 PM 58.5079 -52.9245 251° West  Level FlightAware Approximate
Thu 02:03:00 PM 58.4692 -53.1361 251° West  Level FlightAware Approximate
Thu 02:03:58 PM 58.1333 -55.0500 247° West 440 506 36,000  Level Gander Center
Thu 02:04:00 PM 58.4301 -53.3471 251° West  Level FlightAware Approximate
Thu 02:04:58 PM 58.0667 -55.2833 242° Southwest 460 529 36,000  Level Gander Center
Thu 02:05:00 PM 58.3907 -53.5578 250° West  Level FlightAware Approximate
Thu 02:05:58 PM 58.0500 -55.4833 261° West 460 529 36,000  Level Gander Center
Thu 02:06:00 PM 58.3460 -53.7645 248° West  Level Estimated
Thu 02:06:58 PM 57.9500 -55.7167 231° Southwest 460 529 36,000  Level Gander Center
Thu 02:07:00 PM 58.3010 -53.9707 248° West  Level Estimated
Thu 02:07:58 PM 57.9167 -55.9500 255° West 470 541 36,000  Level Gander Center
Thu 02:08:00 PM 58.2556 -54.1763 247° West  Level Estimated
Thu 02:08:58 PM 57.8500 -56.1333 236° Southwest 460 529 36,000  Level Gander Center
Thu 02:09:00 PM 58.2099 -54.3815 247° West  Level Estimated
Thu 02:09:58 PM 57.7833 -56.3667 242° Southwest 470 541 36,500  Level Gander Center
Thu 02:10:58 PM 57.7167 -56.6000 242° Southwest 470 541 37,100 650 Climbing Gander Center
Thu 02:11:58 PM 57.6667 -56.7833 243° Southwest 470 541 37,800 450 Climbing Gander Center
Thu 02:12:58 PM 57.6000 -57.0167 242° Southwest 460 529 38,000 100 Climbing Gander Center
Thu 02:13:58 PM 57.5333 -57.2167 238° Southwest 470 541 38,000  Level Gander Center
Thu 02:14:58 PM 57.4833 -57.4333 247° West 470 541 38,000  Level Gander Center
Thu 02:15:58 PM 57.4167 -57.6500 240° Southwest 470 541 38,000  Level Gander Center
Thu 02:16:58 PM 57.3667 -57.8167 241° Southwest 470 541 38,000  Level Gander Center
Thu 02:17:58 PM 57.3167 -58.0333 247° West 460 529 38,000  Level Gander Center
Thu 02:18:58 PM 57.2500 -58.2000 234° Southwest 440 506 38,000  Level Gander Center
Thu 02:19:58 PM 57.1833 -58.4500 244° Southwest 480 552 38,000  Level Gander Center
Thu 02:21:58 PM 57.0500 -58.8833 241° Southwest 450 518 38,000  Level Gander Center
Thu 02:22:58 PM 56.9833 -59.1000 241° Southwest 470 541 38,000  Level Gander Center
Thu 02:23:58 PM 56.9167 -59.3000 239° Southwest 450 518 38,000  Level Gander Center
Thu 02:24:58 PM 56.8500 -59.4833 236° Southwest 460 529 38,000  Level Gander Center
Thu 02:25:58 PM 56.8000 -59.7000 247° West 460 529 38,000  Level Gander Center
Thu 02:26:58 PM 56.7333 -59.8833 237° Southwest 450 518 38,000  Level Gander Center
Thu 02:27:58 PM 56.6667 -60.1000 241° Southwest 450 518 38,000  Level Gander Center
Thu 02:28:58 PM 56.6000 -60.2833 237° Southwest 460 529 38,000  Level Gander Center
Thu 02:29:58 PM 56.5333 -60.5000 241° Southwest 460 529 38,000  Level Gander Center
Thu 02:30:58 PM 56.4667 -60.6833 237° Southwest 460 529 38,000  Level Gander Center
Thu 02:32:16 PM 56.3833 -60.9000 235° Southwest 460 529 38,000  Level Montreal Center
Thu 02:33:16 PM 56.3167 -61.1000 239° Southwest 460 529 38,000  Level Montreal Center
Thu 02:34:16 PM 56.2500 -61.2833 237° Southwest 460 529 38,000  Level Montreal Center
Thu 02:34:58 PM 56.2000 -61.5000 248° West 460 529 38,000  Level Gander Center
Thu 02:35:58 PM 56.1333 -61.6667 234° Southwest 460 529 38,000  Level Gander Center
Thu 02:36:58 PM 56.0667 -61.8833 241° Southwest 470 541 38,000  Level Gander Center
Thu 02:37:58 PM 56.0000 -62.0667 237° Southwest 460 529 38,000  Level Gander Center
Thu 02:38:58 PM 55.9333 -62.2667 239° Southwest 460 529 38,000  Level Gander Center
Thu 02:39:58 PM 55.8667 -62.4500 237° Southwest 450 518 38,000  Level Gander Center
Thu 02:40:58 PM 55.8000 -62.6167 235° Southwest 450 518 38,000  Level Gander Center
Thu 02:41:58 PM 55.7333 -62.8167 239° Southwest 450 518 38,000  Level Gander Center
Thu 02:42:58 PM 55.6500 -63.0000 231° Southwest 450 518 38,000  Level Gander Center
Thu 02:43:58 PM 55.5833 -63.2000 240° Southwest 460 529 38,000  Level Gander Center
Thu 02:44:58 PM 55.5167 -63.3833 237° Southwest 460 529 38,000  Level Gander Center
Thu 02:45:58 PM 55.4500 -63.5500 235° Southwest 450 518 38,000  Level Gander Center
Thu 02:46:58 PM 55.3833 -63.7500 240° Southwest 460 529 38,000  Level Gander Center
Thu 02:47:58 PM 55.3000 -63.9167 229° Southwest 460 529 38,000  Level Gander Center
Thu 02:48:58 PM 55.2333 -64.1167 240° Southwest 440 506 38,000  Level Gander Center
Thu 02:49:58 PM 55.1667 -64.3000 238° Southwest 440 506 38,000  Level Gander Center
Thu 02:50:58 PM 55.1000 -64.4667 235° Southwest 440 506 38,000  Level Gander Center
Thu 02:51:58 PM 55.0167 -64.6333 229° Southwest 450 518 38,000  Level Gander Center
Thu 02:52:58 PM 54.9500 -64.8333 240° Southwest 450 518 38,000  Level Gander Center
Thu 02:53:58 PM 54.8833 -65.0000 235° Southwest 450 518 38,000  Level Gander Center
Thu 02:54:58 PM 54.8000 -65.2000 234° Southwest 450 518 38,000  Level Gander Center
Thu 02:55:58 PM 54.7333 -65.3667 235° Southwest 460 529 38,000  Level Gander Center
Thu 02:56:58 PM 54.6833 -65.5333 243° Southwest 450 518 38,000  Level Gander Center
Thu 02:57:58 PM 54.5833 -65.7167 227° Southwest 460 529 38,000  Level Gander Center
Thu 02:58:58 PM 54.5167 -65.8833 235° Southwest 460 529 38,000  Level Gander Center
Thu 02:59:58 PM 54.4333 -66.0833 234° Southwest 460 529 38,000  Level Gander Center
Thu 03:00:58 PM 54.3667 -66.2500 236° Southwest 460 529 38,000  Level Gander Center
Thu 03:02:16 PM 54.2833 -66.4333 232° Southwest 450 518 38,000  Level Montreal Center
Thu 03:03:16 PM 54.2000 -66.6167 232° Southwest 460 529 38,000  Level Montreal Center
Thu 03:04:16 PM 54.1333 -66.7833 236° Southwest 460 529 38,000  Level Montreal Center
Thu 03:05:16 PM 54.0500 -66.9333 227° Southwest 450 518 38,000  Level Montreal Center
Thu 03:06:16 PM 53.9667 -67.1333 235° Southwest 450 518 38,000  Level Montreal Center
Thu 03:07:16 PM 53.9000 -67.3167 238° Southwest 450 518 38,000  Level Montreal Center
Thu 03:08:16 PM 53.8333 -67.4833 236° Southwest 440 506 38,000  Level Montreal Center
Thu 03:09:16 PM 53.7333 -67.6333 222° Southwest 440 506 38,000  Level Montreal Center
Thu 03:10:16 PM 53.6667 -67.8167 239° Southwest 440 506 38,000  Level Montreal Center
Thu 03:11:16 PM 53.6000 -67.9833 236° Southwest 440 506 38,000  Level Montreal Center
Thu 03:11:58 PM 53.5333 -68.1167 230° Southwest 450 518 38,000  Level Gander Center
Thu 03:12:58 PM 53.4667 -68.3167 241° Southwest 450 518 38,000  Level Gander Center
Thu 03:13:58 PM 53.3833 -68.5000 233° Southwest 450 518 38,000  Level Gander Center
Thu 03:14:58 PM 53.3000 -68.6500 227° Southwest 450 518 38,000  Level Gander Center
Thu 03:15:58 PM 53.2333 -68.8000 233° Southwest 450 518 38,000  Level Gander Center
Thu 03:16:58 PM 53.1500 -68.9833 233° Southwest 450 518 38,000  Level Gander Center
Thu 03:17:58 PM 53.0667 -69.1333 227° Southwest 450 518 38,000  Level Gander Center
Thu 03:18:58 PM 53.0000 -69.3000 236° Southwest 450 518 38,000  Level Gander Center
Thu 03:19:58 PM 52.9167 -69.4667 230° Southwest 450 518 38,000  Level Gander Center
Thu 03:20:58 PM 52.8500 -69.6333 237° Southwest 450 518 38,000  Level Gander Center
Thu 03:21:58 PM 52.7833 -69.7833 234° Southwest 440 506 38,000  Level Gander Center
Thu 03:23:16 PM 52.6667 -69.9667 224° Southwest 440 506 38,000  Level Montreal Center
Thu 03:24:16 PM 52.6000 -70.1167 234° Southwest 430 495 38,000  Level Montreal Center
Thu 03:24:58 PM 52.5333 -70.2667 234° Southwest 440 506 38,000  Level Gander Center
Thu 03:25:58 PM 52.4667 -70.4167 234° Southwest 440 506 38,000  Level Gander Center
Thu 03:26:58 PM 52.3833 -70.5667 228° Southwest 440 506 38,000  Level Gander Center
Thu 03:27:58 PM 52.3167 -70.7167 234° Southwest 430 495 38,000  Level Gander Center
Thu 03:28:58 PM 52.2500 -70.8667 234° Southwest 440 506 38,000  Level Gander Center
Thu 03:29:58 PM 52.1667 -71.0333 231° Southwest 440 506 38,000  Level Gander Center
Thu 03:30:58 PM 52.0833 -71.1833 228° Southwest 440 506 38,000  Level Gander Center
Thu 03:31:58 PM 52.0000 -71.3333 228° Southwest 440 506 38,000  Level Gander Center
Thu 03:32:58 PM 51.9167 -71.4667 225° Southwest 440 506 38,000  Level Gander Center
Thu 03:33:58 PM 51.8333 -71.6500 234° Southwest 440 506 38,000  Level Gander Center
Thu 03:34:58 PM 51.7667 -71.7833 231° Southwest 440 506 38,000  Level Gander Center
Thu 03:35:58 PM 51.6833 -71.9333 228° Southwest 440 506 38,000  Level Gander Center
Thu 03:36:58 PM 51.6167 -72.0833 234° Southwest 440 506 38,000  Level Gander Center
Thu 03:37:58 PM 51.5333 -72.2167 225° Southwest 420 483 38,000  Level Gander Center
Thu 03:38:58 PM 51.4500 -72.3667 228° Southwest 420 483 38,000  Level Gander Center
Thu 03:39:58 PM 51.3833 -72.5167 235° Southwest 430 495 38,000  Level Gander Center
Thu 03:40:58 PM 51.3000 -72.6500 225° Southwest 420 483 38,000  Level Gander Center
Thu 03:41:58 PM 51.2333 -72.8000 235° Southwest 420 483 38,000  Level Gander Center
Thu 03:42:58 PM 51.1667 -72.9167 228° Southwest 410 472 38,000  Level Gander Center
Thu 03:43:58 PM 51.0833 -73.0500 225° Southwest 410 472 38,000  Level Gander Center
Thu 03:44:58 PM 51.0000 -73.2000 229° Southwest 400 460 38,000  Level Gander Center
Thu 03:45:58 PM 50.9333 -73.3333 232° Southwest 410 472 38,000  Level Gander Center
Thu 03:46:58 PM 50.8500 -73.4833 229° Southwest 430 495 38,000  Level Gander Center
Thu 03:48:16 PM 50.7667 -73.6000 222° Southwest 400 460 38,000  Level Montreal Center
Thu 03:49:16 PM 50.7000 -73.7333 232° Southwest 400 460 38,000  Level Montreal Center
Thu 03:50:16 PM 50.6167 -73.8500 222° Southwest 400 460 38,000  Level Montreal Center
Thu 03:51:16 PM 50.5500 -73.9833 232° Southwest 390 449 38,000  Level Montreal Center
Thu 03:52:16 PM 50.4667 -74.1167 226° Southwest 390 449 38,000  Level Montreal Center
Thu 03:53:16 PM 50.4000 -74.2500 232° Southwest 390 449 38,000  Level Montreal Center
Thu 03:54:16 PM 50.3167 -74.3500 217° Southwest 390 449 38,000  Level Montreal Center
Thu 03:55:16 PM 50.2500 -74.5000 235° Southwest 400 460 38,000  Level Montreal Center
Thu 03:56:16 PM 50.1667 -74.6333 226° Southwest 400 460 38,000  Level Montreal Center
Thu 03:57:16 PM 50.0833 -74.7667 226° Southwest 400 460 38,000  Level Montreal Center
Thu 03:58:16 PM 50.0167 -74.8667 224° Southwest 400 460 38,000  Level Montreal Center
Thu 03:59:16 PM 49.9333 -75.0000 226° Southwest 400 460 38,000  Level Montreal Center
Thu 04:00:16 PM 49.8667 -75.1333 232° Southwest 400 460 38,000  Level Montreal Center
Thu 04:01:16 PM 49.7833 -75.2667 226° Southwest 400 460 38,000  Level Montreal Center
Thu 04:02:16 PM 49.7167 -75.4000 232° Southwest 400 460 38,000  Level Montreal Center
Thu 04:03:16 PM 49.6333 -75.5167 222° Southwest 390 449 38,000  Level Montreal Center
Thu 04:04:16 PM 49.5667 -75.6333 229° Southwest 400 460 38,000  Level Montreal Center
Thu 04:05:16 PM 49.4833 -75.7667 226° Southwest 390 449 38,000  Level Montreal Center
Thu 04:06:16 PM 49.4000 -75.8833 222° Southwest 390 449 38,000  Level Montreal Center
Thu 04:07:16 PM 49.3333 -76.0000 229° Southwest 390 449 38,000  Level Montreal Center
Thu 04:08:16 PM 49.2667 -76.1167 229° Southwest 390 449 38,000  Level Montreal Center
Thu 04:09:16 PM 49.1833 -76.2500 226° Southwest 390 449 38,000  Level Montreal Center
Thu 04:10:16 PM 49.1000 -76.3833 226° Southwest 390 449 38,000  Level Montreal Center
Thu 04:11:16 PM 49.0333 -76.4833 225° Southwest 390 449 38,000  Level Montreal Center
Thu 04:12:16 PM 48.9500 -76.6000 223° Southwest 390 449 38,000  Level Montreal Center
Thu 04:13:16 PM 48.8833 -76.7333 233° Southwest 400 460 38,000  Level Montreal Center
Thu 04:14:16 PM 48.8000 -76.8667 227° Southwest 400 460 38,000  Level Montreal Center
Thu 04:15:16 PM 48.7333 -76.9833 229° Southwest 400 460 38,000  Level Montreal Center
Thu 04:16:16 PM 48.6333 -77.0833 213° Southwest 400 460 38,000  Level Montreal Center
Thu 04:17:16 PM 48.5500 -77.2167 227° Southwest 400 460 38,000  Level Montreal Center
Thu 04:18:16 PM 48.4833 -77.3333 229° Southwest 400 460 38,000  Level Montreal Center
Thu 04:19:16 PM 48.4000 -77.4667 227° Southwest 400 460 38,000  Level Montreal Center
Thu 04:20:16 PM 48.3333 -77.5833 229° Southwest 400 460 38,000  Level Montreal Center
Thu 04:21:16 PM 48.2500 -77.7000 223° Southwest 400 460 38,000  Level Montreal Center
Thu 04:22:16 PM 48.1667 -77.8000 219° Southwest 410 472 38,000  Level Montreal Center
Thu 04:23:16 PM 48.0667 -77.9333 222° Southwest 420 483 38,000  Level Montreal Center
Thu 04:29:01 PM 47.4810 -78.4550 222° Southwest 433 498 38,000  Level FlightAware ADS-B
Thu 04:29:37 PM 47.4200 -78.5100 211° Southwest 430 495 38,000  Level FlightAware ADS-B
Thu 04:30:11 PM 47.3620 -78.5620 211° Southwest 430 495 38,000  Level FlightAware ADS-B
Thu 04:30:51 PM 47.2950 -78.6220 211° Southwest 432 497 38,000  Level FlightAware ADS-B
Thu 04:31:29 PM 47.2300 -78.6800 211° Southwest 434 499 38,000  Level FlightAware ADS-B
Thu 04:32:09 PM 47.1610 -78.7410 211° Southwest 433 498 38,000  Level FlightAware ADS-B
Thu 04:32:53 PM 47.0860 -78.8070 211° Southwest 428 493 38,000  Level FlightAware ADS-B
Thu 04:33:33 PM 47.0190 -78.8670 211° Southwest 427 491 38,000  Level FlightAware ADS-B
Thu 04:34:09 PM 46.9580 -78.9210 211° Southwest 426 490 38,000  Level FlightAware ADS-B
Thu 04:34:57 PM 46.8760 -78.9930 211° Southwest 424 488 38,000  Level FlightAware ADS-B
Thu 04:35:41 PM 46.8040 -79.0560 211° Southwest 422 486 38,000  Level FlightAware ADS-B
Thu 04:36:22 PM 46.7370 -79.1140 211° Southwest 418 481 38,000  Level FlightAware ADS-B
Thu 04:37:03 PM 46.6670 -79.1750 211° Southwest 414 476 38,000  Level FlightAware ADS-B
Thu 04:37:43 PM 46.6020 -79.2320 211° Southwest 414 476 38,000  Level FlightAware ADS-B
Thu 04:38:27 PM 46.5280 -79.2950 210° Southwest 416 479 38,000  Level FlightAware ADS-B
Thu 04:39:07 PM 46.4620 -79.3520 211° Southwest 418 481 38,000  Level FlightAware ADS-B
Thu 04:39:53 PM 46.3850 -79.4190 211° Southwest 419 482 38,000  Level FlightAware ADS-B
Thu 04:42:59 PM 46.1190 -79.6970 216° Southwest 418 481 38,000  Level FlightAware ADS-B
Thu 04:43:42 PM 46.0500 -79.7690 216° Southwest 419 482 38,000  Level FlightAware ADS-B
Thu 04:44:46 PM 45.9490 -79.8760 216° Southwest 419 482 38,000  Level FlightAware ADS-B
Thu 04:45:33 PM 45.8560 -79.9730 216° Southwest 428 493 38,000  Level FlightAware ADS-B
Thu 04:46:17 PM 45.7850 -80.0470 216° Southwest 435 501 38,000  Level FlightAware ADS-B
Thu 04:47:13 PM 45.6960 -80.1400 216° Southwest 432 497 38,000  Level FlightAware ADS-B
Thu 04:48:05 PM 45.6160 -80.2230 216° Southwest 429 494 38,000  Level FlightAware ADS-B
Thu 04:48:45 PM 45.5510 -80.2900 216° Southwest 429 494 38,000  Level FlightAware ADS-B
Thu 04:49:25 PM 45.4900 -80.3520 215° Southwest 429 494 38,000  Level FlightAware ADS-B
Thu 04:50:13 PM 45.4050 -80.4390 216° Southwest 427 491 38,000  Level FlightAware ADS-B
Thu 04:50:57 PM 45.3350 -80.5110 216° Southwest 431 496 38,000  Level FlightAware ADS-B
Thu 04:51:37 PM 45.2680 -80.5790 216° Southwest 434 499 38,000  Level FlightAware ADS-B
Thu 04:52:17 PM 45.2030 -80.6450 216° Southwest 435 501 38,000  Level FlightAware ADS-B
Thu 04:52:55 PM 45.1420 -80.7070 216° Southwest 437 503 38,000  Level FlightAware ADS-B
Thu 04:53:35 PM 45.0830 -80.7660 215° Southwest 437 503 38,000  Level FlightAware ADS-B
Thu 04:54:25 PM 44.9970 -80.8530 216° Southwest 440 506 38,000  Level FlightAware ADS-B
Thu 04:55:06 PM 44.9340 -80.9160 215° Southwest 441 507 38,000  Level FlightAware ADS-B
Thu 04:55:45 PM 44.8640 -80.9870 216° Southwest 445 512 38,000  Level FlightAware ADS-B
Thu 04:56:25 PM 44.8020 -81.0480 215° Southwest 447 514 38,000  Level FlightAware ADS-B
Thu 04:57:01 PM 44.7440 -81.1060 215° Southwest 445 512 38,000  Level FlightAware ADS-B
Thu 04:57:59 PM 44.6490 -81.2120 218° Southwest 443 510 38,000  Level FlightAware ADS-B
Thu 04:58:40 PM 44.5930 -81.2750 219° Southwest 446 513 38,000  Level FlightAware ADS-B
Thu 04:59:26 PM 44.5100 -81.3670 218° Southwest 448 516 38,000  Level FlightAware ADS-B
Thu 05:00:02 PM 44.4570 -81.4260 218° Southwest 451 519 38,000  Level FlightAware ADS-B
Thu 05:01:04 PM 44.3470 -81.5470 218° Southwest 453 521 38,000  Level FlightAware ADS-B
Thu 05:01:40 PM 44.2810 -81.6190 218° Southwest 453 521 38,000  Level FlightAware ADS-B
Thu 05:02:20 PM 44.2170 -81.6890 218° Southwest 454 522 38,000  Level FlightAware ADS-B
Thu 05:03:00 PM 44.1540 -81.7580 218° Southwest 455 524 38,000  Level FlightAware ADS-B
Thu 05:03:40 PM 44.0860 -81.8320 218° Southwest 456 525 38,000  Level FlightAware ADS-B
Thu 05:04:20 PM 44.0170 -81.9070 218° Southwest 457 526 38,000  Level FlightAware ADS-B
Thu 05:05:05 PM 43.9430 -81.9870 218° Southwest 458 527 38,000  Level FlightAware ADS-B
Thu 05:05:45 PM 43.8770 -82.0580 218° Southwest 461 531 38,000  Level FlightAware ADS-B
Thu 05:06:20 PM 43.8180 -82.1220 218° Southwest 463 533 38,000  Level FlightAware ADS-B
Thu 05:07:06 PM 43.7410 -82.2040 218° Southwest 466 536 38,000  Level FlightAware ADS-B
Thu 05:08:04 PM 43.6420 -82.3100 218° Southwest 468 539 38,000  Level FlightAware ADS-B
Thu 05:08:34 PM 43.5960 -82.3590 218° Southwest 466 536 38,000 -353 Level FlightAware ADS-B
Thu 05:08:55 PM 43.5670 -82.4040 228° Southwest 465 535 37,700 -947 Descending FlightAware ADS-B
Thu 05:09:31 PM 43.5240 -82.5010 239° Southwest 468 539 37,100 -1,026 Descending FlightAware ADS-B
Thu 05:10:11 PM 43.4760 -82.6110 239° Southwest 470 541 36,400 -1,013 Descending FlightAware ADS-B
Thu 05:10:48 PM 43.4390 -82.6970 239° Southwest 467 537 35,800 -600 Descending FlightAware ADS-B
Thu 05:11:31 PM 43.3920 -82.8010 238° Southwest 464 534 35,600 -1,055 Descending FlightAware ADS-B
Thu 05:12:19 PM 43.3310 -82.9400 239° Southwest 471 542 34,200 -1,370 Descending FlightAware ADS-B
Thu 05:13:03 PM 43.2820 -83.0510 239° Southwest 469 540 33,500 -977 Descending FlightAware ADS-B
Thu 05:13:45 PM 43.2350 -83.1560 238° Southwest 457 526 32,800 -975 Descending FlightAware ADS-B
Thu 05:14:23 PM 43.1920 -83.2510 238° Southwest 447 514 32,200 -571 Descending FlightAware ADS-B
Thu 05:15:09 PM 43.1440 -83.3570 238° Southwest 446 513 32,000 -136 Descending FlightAware ADS-B
Thu 05:15:51 PM 43.0960 -83.4620 238° Southwest 451 519 32,000  Level FlightAware ADS-B
Thu 05:16:23 PM 43.0610 -83.5410 239° Southwest 451 519 32,000  Level FlightAware ADS-B
Thu 05:17:07 PM 43.0140 -83.6460 239° Southwest 450 518 32,000  Level FlightAware ADS-B
Thu 05:17:51 PM 42.9770 -83.7620 246° West 450 518 32,000  Level FlightAware ADS-B
Thu 05:18:30 PM 42.9560 -83.8680 255° West 449 517 32,000  Level FlightAware ADS-B
Thu 05:19:12 PM 42.9440 -83.9850 262° West 452 520 32,000  Level FlightAware ADS-B
Thu 05:19:52 PM 42.9330 -84.0970 262° West 453 521 32,000  Level FlightAware ADS-B
Thu 05:22:43 PM 42.8890 -84.5410 262° West 454 522 32,000  Level FlightAware ADS-B
Thu 05:23:24 PM 42.8770 -84.6550 262° West 455 524 32,000  Level FlightAware ADS-B
Thu 05:24:29 PM 42.8540 -84.8790 262° West 456 525 32,000  Level FlightAware ADS-B
Thu 05:25:09 PM 42.8410 -84.9960 261° West 456 525 32,000  Level FlightAware ADS-B
Thu 05:25:52 PM 42.8280 -85.1200 262° West 459 528 32,000 -553 Level FlightAware ADS-B
Thu 05:26:25 PM 42.8180 -85.2110 262° West 451 519 31,300 -1,443 Descending FlightAware ADS-B
Thu 05:27:11 PM 42.8040 -85.3380 261° West 434 499 30,100 -1,553 Descending FlightAware ADS-B
Thu 05:27:50 PM 42.7930 -85.4420 262° West 420 483 29,100 -1,500 Descending FlightAware ADS-B
Thu 05:28:27 PM 42.7800 -85.5360 259° West 409 471 28,200 -1,579 Descending FlightAware ADS-B
Thu 05:29:06 PM 42.7630 -85.6330 257° West 399 459 27,100 -1,610 Descending FlightAware ADS-B
Thu 05:29:49 PM 42.7440 -85.7340 256° West 388 447 26,000 -1,500 Descending FlightAware ADS-B
Thu 05:30:34 PM 42.7250 -85.8400 256° West 377 434 24,900 -1,500 Descending FlightAware ADS-B
Thu 05:31:13 PM 42.7090 -85.9270 256° West 368 423 23,900 -1,575 Descending FlightAware ADS-B
Thu 05:31:54 PM 42.6920 -86.0200 256° West 361 415 22,800 -1,535 Descending FlightAware ADS-B
Thu 05:32:39 PM 42.6750 -86.1170 257° West 352 405 21,700 -1,412 Descending FlightAware ADS-B
Thu 05:33:19 PM 42.6590 -86.2020 256° West 346 398 20,800 -1,429 Descending FlightAware ADS-B
Thu 05:34:03 PM 42.6420 -86.2930 256° West 340 391 19,700 -1,786 Descending FlightAware ADS-B
Thu 05:34:43 PM 42.6260 -86.3790 256° West 357 411 18,300 -1,624 Descending FlightAware ADS-B
Thu 05:35:28 PM 42.6080 -86.4760 256° West 339 390 17,400 -1,429 Descending FlightAware ADS-B
Thu 05:36:07 PM 42.5930 -86.5550 256° West 337 388 16,300 -1,735 Descending FlightAware ADS-B
Thu 05:36:51 PM 42.5760 -86.6440 255° West 335 386 15,000 -1,674 Descending FlightAware ADS-B
Thu 05:37:33 PM 42.5600 -86.7270 255° West 328 377 13,900 -1,650 Descending FlightAware ADS-B
Thu 05:38:11 PM 42.5400 -86.8020 250° West 327 376 12,800 -1,200 Descending FlightAware ADS-B
Thu 05:38:53 PM 42.5200 -86.8750 250° West 326 375 12,300 -1,500 Descending FlightAware ADS-B
Thu 05:39:39 PM 42.4950 -86.9660 250° West 310 357 10,600 -1,643 Descending FlightAware ADS-B
Thu 05:40:17 PM 42.4770 -87.0340 250° West 296 341 10,000 -774 Descending FlightAware ADS-B
Thu 05:40:41 PM 42.4650 -87.0750 248° West 281 323 9,800 -346 Descending FlightAware ADS-B
Thu 05:41:09 PM 42.4530 -87.1200 250° West 264 304 9,700 -211 Descending FlightAware ADS-B
Thu 05:41:38 PM 42.4420 -87.1580 249° West 258 297 9,600 -419 Descending FlightAware ADS-B
Thu 05:41:52 PM 42.4360 -87.1820 251° West 237 273 9,400 -789 Descending FlightAware ADS-B
Thu 05:42:16 PM 42.4270 -87.2150 250° West 229 264 9,100 -600 Descending FlightAware ADS-B
Thu 05:42:42 PM 42.4180 -87.2480 250° West 227 261 8,900 -222 Descending FlightAware ADS-B
Thu 05:43:10 PM 42.4080 -87.2860 250° West 228 262 8,900  Level FlightAware ADS-B
Thu 05:43:34 PM 42.3930 -87.3130 233° Southwest 233 268 8,900 -300 Level FlightAware ADS-B
Thu 05:43:50 PM 42.3760 -87.3190 195° South 244 281 8,700 -789 Descending FlightAware ADS-B
Thu 05:44:12 PM 42.3520 -87.3160 175° South 247 284 8,400 -875 Descending FlightAware ADS-B
Thu 05:44:38 PM 42.3220 -87.3100 172° South 244 281 8,000 -964 Descending FlightAware ADS-B
Thu 05:45:08 PM 42.2890 -87.3040 172° South 241 277 7,500 -1,034 Descending FlightAware ADS-B
Thu 05:45:36 PM 42.2570 -87.2990 173° South 238 274 7,000 -1,038 Descending FlightAware ADS-B
Thu 05:46:00 PM 42.2310 -87.2940 172° South 235 270 6,600 -889 Descending FlightAware ADS-B
Thu 05:46:30 PM 42.2000 -87.2880 172° South 233 268 6,200 -828 Descending FlightAware ADS-B
Thu 05:46:58 PM 42.1690 -87.2830 173° South 228 262 5,800 -955 Descending FlightAware ADS-B
Thu 05:47:14 PM 42.1530 -87.2800 172° South 229 264 5,500 -977 Descending FlightAware ADS-B
Thu 05:47:41 PM 42.1250 -87.2750 172° South 232 267 5,100 -655 Descending FlightAware ADS-B
Thu 05:48:09 PM 42.0930 -87.2690 172° South 265 305 4,900 -245 Descending FlightAware ADS-B
Thu 05:48:30 PM 42.0670 -87.2660 175° South 270 311 4,900  Level FlightAware ADS-B
Thu 05:49:05 PM 42.0260 -87.2760 190° South 268 308 4,900  Level FlightAware ADS-B
Thu 05:49:25 PM 42.0010 -87.2920 205° Southwest 262 302 4,900  Level FlightAware ADS-B
Thu 05:49:37 PM 41.9930 -87.3070 234° Southwest 260 299 4,900  Level FlightAware ADS-B
Thu 05:50:10 PM 41.9770 -87.3540 245° Southwest 260 299 4,900  Level FlightAware ADS-B
Thu 05:50:38 PM 41.9680 -87.3980 255° West 262 302 4,900  Level FlightAware ADS-B
Thu 05:51:06 PM 41.9690 -87.4440 272° West 265 305 4,900  Level FlightAware ADS-B
Thu 05:51:31 PM 41.9690 -87.4850 270° West 266 306 4,900  Level FlightAware ADS-B
Thu 05:51:57 PM 41.9690 -87.5220 270° West 265 305 4,900 -107 Level FlightAware ADS-B
Thu 05:52:27 PM 41.9690 -87.5770 270° West 269 310 4,800 -667 Descending FlightAware ADS-B
Thu 05:52:51 PM 41.9690 -87.6190 270° West 255 293 4,300 -1,412 Descending FlightAware ADS-B
Thu 05:53:18 PM 41.9690 -87.6580 270° West 226 260 3,600 -1,395 Descending FlightAware ADS-B
Thu 05:53:34 PM 41.9690 -87.6790 270° West 210 242 3,300 -980 Descending FlightAware ADS-B
Thu 05:54:07 PM 41.9690 -87.7190 270° West 186 214 2,800 -930 Descending FlightAware ADS-B
Thu 05:54:45 PM 41.9690 -87.7610 270° West 176 203 2,200 -806 Descending FlightAware ADS-B
Thu 05:55:14 PM 41.9690 -87.7910 270° West 156 180 1,900 -730 Descending FlightAware ADS-B
Thu 05:55:59 PM 41.9690 -87.8310 270° West 136 157 1,300 -750 Descending FlightAware ADS-B
Thu 05:56:26 PM 41.9690 -87.8530 270° West 135 155 1,000 -655 Descending FlightAware ADS-B
Thu 05:56:54 PM 41.9690 -87.8770 270° West 139 160 700 -414 Descending FlightAware ADS-B
Thu 05:57:24 PM 41.9690 -87.9000 270° West 139 160 600 -200 Descending FlightAware ADS-B
Thu 06:04:00 PM 41.9667 -87.9000 180° South  Level FlightAware Approximate

Login

Don't have an account? Register now (free) for customized features, flight alerts, and more!